Relevés horaires Kleine Brogel (Belgique)


Relevés horaires à Kleine Brogel - Dimanche 28 Avr. 2024
Heure UTC1 Température [°C] Vent [km/h] Hum. [%] Pres.4 [hPa] Visi. [Km] Nébu. [octa] Préc.5 [mm] Cond.
2m. Res. Ros. Dir.2 Vit. Moy. Raf.3
23:00 6.9 6.9 5.1 NNO 1.9 -- 1.9 88 1017.2(1.5/3h) >70 -- -- --
22:00 9.1 9.1 5.7 NNO 1.9 -- 7.4 79 1016.7(1.9/3h) >70 -- -- --
21:00 9.6 9.6 5.2 NNO 3.7 -- 18.5 74 1016.2(2.5/3h) >70 -- -- --
20:00 10.6 10.6 5.0 SSO 3.7 -- 11.1 68 1015.6(2.4/3h) >70 -- -- --
19:00 12.3 12.2 5.2 SSO 5.6 -- 18.5 62 1014.7(2.2/3h) >70 -- -- --
18:00 13.1 12 6.0 SO 13.0 -- 29.6 62 1013.6(2.2/3h) >70 -- -- NA
17:00 14.5 13.9 6.5 SO 11.1 -- 24.1 59 1013(2.4/3h) >70 -- -- NA
16:00 15.6 14.8 6.9 SO 14.8 -- 24.1 56 1012.2(2.6/3h) >70 -- -- --
15:00 14.7 13.9 7.7 SO 13.0 -- 29.6 63 1011.2(3.0/3h) >70 -- -- NA
14:00 14.0 12.9 8.0 SO 14.8 -- 27.8 67 1010.5(2.8/3h) >70 -- -- Il y a une bruine faible et continue à la station au moment de l'observation
13:00 14.0 12.9 7.2 SSO 14.8 -- 29.6 64 1009.7(2.5/3h) >70 -- -- NA
12:00 16.2 15.7 7.0 SSO 13.0 -- 27.8 54 1008.2(1.7/3h) >70 -- -- NA
11:00 15.1 14.8 6.8 SSO 9.3 -- 24.1 58 1007.7(1.9/3h) >70 -- -- --
10:00 15.2 14.7 6.7 SSO 11.1 -- 24.1 57 1007.1(2.1/3h) >70 -- -- --
09:00 15.0 14.5 6.2 SSO 11.1 -- 27.8 56 1006.2(2.2/3h) >70 -- -- --
08:00 15.1 14.4 7.6 SSO 13.0 -- 20.4 61 1005.7(2.0/3h) >70 -- -- --
07:00 14.9 14.9 8.5 SSO 7.4 -- 14.8 66 1005(1.8/3h) >70 -- -- --
06:00 14.3 14.2 7.7 S 7.4 -- 14.8 64 1003.8(0.6/3h) >70 -- -- NA
05:00 13.8 13.8 7.3 S 3.7 -- 9.3 65 1003.6(0.2/3h) >70 -- -- --
04:00 12.3 12.3 7.0 NNO 1.9 -- 5.6 70 1003.1(-0.5/3h) >70 -- -- --
03:00 12.5 12.5 7.2 NNO 1.9 -- 7.4 70 1003.2(-0.9/3h) >70 -- -- NA
02:00 11.6 11.6 7.8 NNO 1.9 -- 5.6 77 1003.3(-1.2/3h) >70 -- -- --
01:00 11.6 11.6 8.9 E 3.7 -- 7.4 83 1003.7(-0.9/3h) >70 -- -- NA
00:00 12.5 12.5 8.5 NNO 1.9 -- 18.5 77 1004.2(-0.6/3h) >70 -- -- Il y a de la pluie faible et continue à la station au moment de l'observation

1 Coordinated Universal Time. Actuellement il est 00:00 locale et 22:00 UTC.

2 Le vent souffle depuis la direction indiquée vers la direction oposée.

3 Les rafales max. sont disponible 40 min après l'heure du relevé.

4 Pour les stations d'altitude (plus de 600m) le géopotentiel du niveau le plus proche de la pression obligatoire est indiqué.

5 Les stations disposant d'un diffuseur peuvent indiquer "trace". Cela signifie que des précipitations ont touchés le sol mais que la quantité est inférieure à 0.1 mm.

Récapitulatif de la journée
Température [°C] Vent [km/h] Ensoleillement4 [h] Precipitations totale5 [mm] Pression [Hpa]
Min1 Max.2 Moy.3 Max. Min Max.
11.3 16.9 0 29.6 0 h 0 min 0 1003.1 1017.2

1 Température minimale relevée entre 18:00 UTC la veille et 18:00 UTC le jour donné.

2 Température maximale relevée entre 06:00 UTC le jour donné et 06:00 UTC le lendemain.

3 Vent moyen de la journée basé sur les relevés horaires.

4 Ensoleillement en heures relevé entre 06:00 UTC la veille et 06:00 UTC le jour donné.

5 Précipitations totales tombées entre 06:00 UTC la jour donné et 06:00 UTC le lendemain.

Graphiques horaires